sensor_id;sensor_type;location;lat;lon;timestamp;P1;durP1;ratioP1;P2;durP2;ratioP2
68365;SDS011;55283;51.466;5.478;2023-03-02T00:01:25;1.30;;;1.20;;
68365;SDS011;55283;51.466;5.478;2023-03-02T00:03:57;1.27;;;1.10;;
68365;SDS011;55283;51.466;5.478;2023-03-02T00:06:27;1.33;;;1.23;;
68365;SDS011;55283;51.466;5.478;2023-03-02T00:08:54;1.77;;;1.40;;
68365;SDS011;55283;51.466;5.478;2023-03-02T00:11:24;1.30;;;1.13;;
68365;SDS011;55283;51.466;5.478;2023-03-02T00:13:51;2.55;;;1.30;;
68365;SDS011;55283;51.466;5.478;2023-03-02T00:16:16;1.83;;;1.27;;
68365;SDS011;55283;51.466;5.478;2023-03-02T00:18:42;1.63;;;1.40;;
68365;SDS011;55283;51.466;5.478;2023-03-02T00:21:07;1.50;;;1.27;;
68365;SDS011;55283;51.466;5.478;2023-03-02T00:23:35;1.73;;;1.00;;
68365;SDS011;55283;51.466;5.478;2023-03-02T00:26:02;1.30;;;1.20;;
68365;SDS011;55283;51.466;5.478;2023-03-02T00:28:28;1.35;;;1.25;;
68365;SDS011;55283;51.466;5.478;2023-03-02T00:30:56;1.53;;;1.37;;
68365;SDS011;55283;51.466;5.478;2023-03-02T00:33:21;1.50;;;1.30;;
68365;SDS011;55283;51.466;5.478;2023-03-02T00:35:47;1.33;;;1.10;;
68365;SDS011;55283;51.466;5.478;2023-03-02T00:38:14;1.27;;;1.17;;
68365;SDS011;55283;51.466;5.478;2023-03-02T00:40:43;1.40;;;1.20;;
68365;SDS011;55283;51.466;5.478;2023-03-02T00:43:10;1.30;;;1.20;;
68365;SDS011;55283;51.466;5.478;2023-03-02T00:45:36;1.95;;;1.23;;
68365;SDS011;55283;51.466;5.478;2023-03-02T00:48:01;1.33;;;1.20;;
68365;SDS011;55283;51.466;5.478;2023-03-02T00:50:27;1.43;;;1.17;;
68365;SDS011;55283;51.466;5.478;2023-03-02T00:52:52;1.40;;;1.30;;
68365;SDS011;55283;51.466;5.478;2023-03-02T00:55:17;1.47;;;1.13;;
68365;SDS011;55283;51.466;5.478;2023-03-02T00:57:46;1.40;;;1.30;;
68365;SDS011;55283;51.466;5.478;2023-03-02T01:00:20;1.47;;;1.37;;
68365;SDS011;55283;51.466;5.478;2023-03-02T01:02:48;1.60;;;1.30;;
68365;SDS011;55283;51.466;5.478;2023-03-02T01:05:14;1.40;;;1.25;;
68365;SDS011;55283;51.466;5.478;2023-03-02T01:07:41;1.37;;;1.27;;
68365;SDS011;55283;51.466;5.478;2023-03-02T01:10:06;1.70;;;1.27;;
68365;SDS011;55283;51.466;5.478;2023-03-02T01:12:33;1.42;;;1.27;;
68365;SDS011;55283;51.466;5.478;2023-03-02T01:14:58;1.20;;;1.10;;
68365;SDS011;55283;51.466;5.478;2023-03-02T01:17:24;1.40;;;1.30;;
68365;SDS011;55283;51.466;5.478;2023-03-02T01:19:50;1.30;;;1.20;;
68365;SDS011;55283;51.466;5.478;2023-03-02T01:22:17;3.42;;;1.38;;
68365;SDS011;55283;51.466;5.478;2023-03-02T01:24:43;2.73;;;1.40;;
68365;SDS011;55283;51.466;5.478;2023-03-02T01:27:09;1.70;;;1.30;;
68365;SDS011;55283;51.466;5.478;2023-03-02T01:29:34;1.97;;;1.30;;
68365;SDS011;55283;51.466;5.478;2023-03-02T01:32:00;1.50;;;1.30;;
68365;SDS011;55283;51.466;5.478;2023-03-02T01:34:28;1.45;;;1.20;;
68365;SDS011;55283;51.466;5.478;2023-03-02T01:36:54;1.90;;;1.30;;
68365;SDS011;55283;51.466;5.478;2023-03-02T01:39:20;1.52;;;1.30;;
68365;SDS011;55283;51.466;5.478;2023-03-02T01:41:46;2.17;;;1.30;;
68365;SDS011;55283;51.466;5.478;2023-03-02T01:47:04;1.67;;;1.20;;
68365;SDS011;55283;51.466;5.478;2023-03-02T01:49:42;1.50;;;1.40;;
68365;SDS011;55283;51.466;5.478;2023-03-02T01:52:18;1.40;;;1.30;;
68365;SDS011;55283;51.466;5.478;2023-03-02T01:54:44;1.23;;;1.13;;
68365;SDS011;55283;51.466;5.478;2023-03-02T01:57:14;1.90;;;1.40;;
68365;SDS011;55283;51.466;5.478;2023-03-02T01:59:44;2.00;;;1.40;;
68365;SDS011;55283;51.466;5.478;2023-03-02T02:02:12;1.40;;;1.30;;
68365;SDS011;55283;51.466;5.478;2023-03-02T02:04:39;1.30;;;1.20;;
68365;SDS011;55283;51.466;5.478;2023-03-02T02:07:11;2.05;;;1.30;;
68365;SDS011;55283;51.466;5.478;2023-03-02T02:09:43;1.75;;;1.30;;
68365;SDS011;55283;51.466;5.478;2023-03-02T02:12:13;1.57;;;1.33;;
68365;SDS011;55283;51.466;5.478;2023-03-02T02:14:43;1.55;;;1.30;;
68365;SDS011;55283;51.466;5.478;2023-03-02T02:17:10;1.30;;;1.20;;
68365;SDS011;55283;51.466;5.478;2023-03-02T02:19:50;1.20;;;1.10;;
68365;SDS011;55283;51.466;5.478;2023-03-02T02:30:45;1.37;;;1.20;;
68365;SDS011;55283;51.466;5.478;2023-03-02T02:33:15;1.70;;;1.20;;
68365;SDS011;55283;51.466;5.478;2023-03-02T02:35:46;1.50;;;1.15;;
68365;SDS011;55283;51.466;5.478;2023-03-02T02:38:13;1.30;;;1.20;;
68365;SDS011;55283;51.466;5.478;2023-03-02T02:40:50;1.40;;;1.30;;
68365;SDS011;55283;51.466;5.478;2023-03-02T02:43:20;1.30;;;1.20;;
68365;SDS011;55283;51.466;5.478;2023-03-02T02:45:47;1.45;;;1.30;;
68365;SDS011;55283;51.466;5.478;2023-03-02T02:48:15;1.52;;;1.30;;
68365;SDS011;55283;51.466;5.478;2023-03-02T02:50:44;1.67;;;1.50;;
68365;SDS011;55283;51.466;5.478;2023-03-02T02:53:12;1.60;;;1.48;;
68365;SDS011;55283;51.466;5.478;2023-03-02T02:55:43;1.40;;;1.30;;
68365;SDS011;55283;51.466;5.478;2023-03-02T02:58:18;1.30;;;1.20;;
68365;SDS011;55283;51.466;5.478;2023-03-02T03:00:57;1.38;;;1.25;;
68365;SDS011;55283;51.466;5.478;2023-03-02T03:03:28;1.40;;;1.30;;
68365;SDS011;55283;51.466;5.478;2023-03-02T03:06:00;1.33;;;1.20;;
68365;SDS011;55283;51.466;5.478;2023-03-02T03:11:10;1.48;;;1.38;;
68365;SDS011;55283;51.466;5.478;2023-03-02T03:13:43;1.63;;;1.40;;
68365;SDS011;55283;51.466;5.478;2023-03-02T03:16:12;2.30;;;1.40;;
68365;SDS011;55283;51.466;5.478;2023-03-02T03:18:42;1.50;;;1.40;;
68365;SDS011;55283;51.466;5.478;2023-03-02T03:21:10;1.52;;;1.40;;
68365;SDS011;55283;51.466;5.478;2023-03-02T03:23:36;1.30;;;1.20;;
68365;SDS011;55283;51.466;5.478;2023-03-02T03:26:03;1.30;;;1.20;;
68365;SDS011;55283;51.466;5.478;2023-03-02T03:28:29;1.50;;;1.40;;
68365;SDS011;55283;51.466;5.478;2023-03-02T03:30:55;1.85;;;1.52;;
68365;SDS011;55283;51.466;5.478;2023-03-02T03:33:20;1.30;;;1.20;;
68365;SDS011;55283;51.466;5.478;2023-03-02T03:35:46;1.60;;;1.50;;
68365;SDS011;55283;51.466;5.478;2023-03-02T03:38:11;1.40;;;1.30;;
68365;SDS011;55283;51.466;5.478;2023-03-02T03:40:36;1.50;;;1.40;;
68365;SDS011;55283;51.466;5.478;2023-03-02T03:43:02;3.40;;;1.50;;
68365;SDS011;55283;51.466;5.478;2023-03-02T03:45:37;1.50;;;1.40;;
68365;SDS011;55283;51.466;5.478;2023-03-02T03:48:03;1.40;;;1.30;;
68365;SDS011;55283;51.466;5.478;2023-03-02T03:50:29;1.60;;;1.50;;
68365;SDS011;55283;51.466;5.478;2023-03-02T03:52:57;1.60;;;1.50;;
68365;SDS011;55283;51.466;5.478;2023-03-02T03:55:22;2.00;;;1.63;;
68365;SDS011;55283;51.466;5.478;2023-03-02T03:57:47;1.60;;;1.50;;
68365;SDS011;55283;51.466;5.478;2023-03-02T04:00:13;1.60;;;1.33;;
68365;SDS011;55283;51.466;5.478;2023-03-02T04:02:43;1.52;;;1.42;;
68365;SDS011;55283;51.466;5.478;2023-03-02T04:05:10;1.55;;;1.45;;
68365;SDS011;55283;51.466;5.478;2023-03-02T04:07:37;1.47;;;1.30;;
68365;SDS011;55283;51.466;5.478;2023-03-02T04:10:06;1.98;;;1.45;;
68365;SDS011;55283;51.466;5.478;2023-03-02T04:12:33;1.70;;;1.40;;
68365;SDS011;55283;51.466;5.478;2023-03-02T04:15:01;2.40;;;1.53;;
68365;SDS011;55283;51.466;5.478;2023-03-02T04:17:28;1.55;;;1.30;;
68365;SDS011;55283;51.466;5.478;2023-03-02T04:19:54;1.50;;;1.33;;
68365;SDS011;55283;51.466;5.478;2023-03-02T04:22:20;3.05;;;1.73;;
68365;SDS011;55283;51.466;5.478;2023-03-02T04:24:46;2.20;;;1.60;;
68365;SDS011;55283;51.466;5.478;2023-03-02T04:27:12;1.42;;;1.33;;
68365;SDS011;55283;51.466;5.478;2023-03-02T04:29:38;1.40;;;1.30;;
68365;SDS011;55283;51.466;5.478;2023-03-02T04:32:04;1.50;;;1.40;;
68365;SDS011;55283;51.466;5.478;2023-03-02T04:34:30;1.75;;;1.60;;
68365;SDS011;55283;51.466;5.478;2023-03-02T04:36:56;1.70;;;1.60;;
68365;SDS011;55283;51.466;5.478;2023-03-02T04:39:21;1.92;;;1.73;;
68365;SDS011;55283;51.466;5.478;2023-03-02T04:41:47;1.90;;;1.60;;
68365;SDS011;55283;51.466;5.478;2023-03-02T04:44:13;1.50;;;1.40;;
68365;SDS011;55283;51.466;5.478;2023-03-02T04:46:40;1.60;;;1.50;;
68365;SDS011;55283;51.466;5.478;2023-03-02T04:49:08;1.63;;;1.50;;
68365;SDS011;55283;51.466;5.478;2023-03-02T04:51:35;2.08;;;1.60;;
68365;SDS011;55283;51.466;5.478;2023-03-02T04:54:27;1.60;;;1.50;;
68365;SDS011;55283;51.466;5.478;2023-03-02T04:56:52;1.83;;;1.70;;
68365;SDS011;55283;51.466;5.478;2023-03-02T04:59:24;1.77;;;1.60;;
68365;SDS011;55283;51.466;5.478;2023-03-02T05:01:51;1.60;;;1.50;;
68365;SDS011;55283;51.466;5.478;2023-03-02T05:04:18;1.50;;;1.40;;
68365;SDS011;55283;51.466;5.478;2023-03-02T05:06:43;1.73;;;1.50;;
68365;SDS011;55283;51.466;5.478;2023-03-02T05:09:09;1.63;;;1.50;;
68365;SDS011;55283;51.466;5.478;2023-03-02T05:11:38;1.70;;;1.53;;
68365;SDS011;55283;51.466;5.478;2023-03-02T05:14:04;1.75;;;1.60;;
68365;SDS011;55283;51.466;5.478;2023-03-02T05:16:33;1.57;;;1.47;;
68365;SDS011;55283;51.466;5.478;2023-03-02T05:19:00;1.70;;;1.60;;
68365;SDS011;55283;51.466;5.478;2023-03-02T05:21:27;2.40;;;1.70;;
68365;SDS011;55283;51.466;5.478;2023-03-02T05:23:52;1.77;;;1.57;;
68365;SDS011;55283;51.466;5.478;2023-03-02T05:26:18;2.03;;;1.58;;
68365;SDS011;55283;51.466;5.478;2023-03-02T05:28:46;1.70;;;1.50;;
68365;SDS011;55283;51.466;5.478;2023-03-02T05:31:34;1.77;;;1.40;;
68365;SDS011;55283;51.466;5.478;2023-03-02T05:33:59;1.90;;;1.80;;
68365;SDS011;55283;51.466;5.478;2023-03-02T05:36:26;2.17;;;1.60;;
68365;SDS011;55283;51.466;5.478;2023-03-02T05:38:51;1.73;;;1.37;;
68365;SDS011;55283;51.466;5.478;2023-03-02T05:41:20;2.13;;;1.50;;
68365;SDS011;55283;51.466;5.478;2023-03-02T05:43:45;2.53;;;1.50;;
68365;SDS011;55283;51.466;5.478;2023-03-02T05:46:10;1.88;;;1.67;;
68365;SDS011;55283;51.466;5.478;2023-03-02T05:48:36;1.80;;;1.60;;
68365;SDS011;55283;51.466;5.478;2023-03-02T05:51:02;1.60;;;1.50;;
68365;SDS011;55283;51.466;5.478;2023-03-02T05:53:27;2.25;;;1.60;;
68365;SDS011;55283;51.466;5.478;2023-03-02T05:55:55;1.70;;;1.60;;
68365;SDS011;55283;51.466;5.478;2023-03-02T05:58:20;2.05;;;1.70;;
68365;SDS011;55283;51.466;5.478;2023-03-02T06:00:48;2.80;;;1.67;;
68365;SDS011;55283;51.466;5.478;2023-03-02T06:03:14;2.33;;;1.75;;
68365;SDS011;55283;51.466;5.478;2023-03-02T06:05:40;1.70;;;1.60;;
68365;SDS011;55283;51.466;5.478;2023-03-02T06:08:08;1.75;;;1.60;;
68365;SDS011;55283;51.466;5.478;2023-03-02T06:10:34;1.87;;;1.57;;
68365;SDS011;55283;51.466;5.478;2023-03-02T06:13:02;2.13;;;1.92;;
68365;SDS011;55283;51.466;5.478;2023-03-02T06:15:27;2.03;;;1.83;;
68365;SDS011;55283;51.466;5.478;2023-03-02T06:17:54;1.97;;;1.57;;
68365;SDS011;55283;51.466;5.478;2023-03-02T06:20:22;2.00;;;1.80;;
68365;SDS011;55283;51.466;5.478;2023-03-02T06:22:50;1.83;;;1.70;;
68365;SDS011;55283;51.466;5.478;2023-03-02T06:25:17;2.00;;;1.67;;
68365;SDS011;55283;51.466;5.478;2023-03-02T06:27:47;2.10;;;1.85;;
68365;SDS011;55283;51.466;5.478;2023-03-02T06:30:20;1.88;;;1.60;;
68365;SDS011;55283;51.466;5.478;2023-03-02T06:32:47;1.73;;;1.57;;
68365;SDS011;55283;51.466;5.478;2023-03-02T06:35:13;1.90;;;1.60;;
68365;SDS011;55283;51.466;5.478;2023-03-02T06:37:38;3.40;;;1.57;;
68365;SDS011;55283;51.466;5.478;2023-03-02T06:40:04;1.73;;;1.52;;
68365;SDS011;55283;51.466;5.478;2023-03-02T06:42:38;4.40;;;1.50;;
68365;SDS011;55283;51.466;5.478;2023-03-02T06:45:08;3.55;;;1.80;;
68365;SDS011;55283;51.466;5.478;2023-03-02T06:47:35;3.92;;;1.75;;
68365;SDS011;55283;51.466;5.478;2023-03-02T06:50:00;1.70;;;1.60;;
68365;SDS011;55283;51.466;5.478;2023-03-02T06:52:31;1.95;;;1.60;;
68365;SDS011;55283;51.466;5.478;2023-03-02T06:54:57;2.17;;;1.70;;
68365;SDS011;55283;51.466;5.478;2023-03-02T06:57:23;1.75;;;1.60;;
68365;SDS011;55283;51.466;5.478;2023-03-02T06:59:50;2.03;;;1.40;;
68365;SDS011;55283;51.466;5.478;2023-03-02T07:02:16;3.63;;;2.20;;
68365;SDS011;55283;51.466;5.478;2023-03-02T07:04:41;3.53;;;2.10;;
68365;SDS011;55283;51.466;5.478;2023-03-02T07:07:07;4.77;;;1.73;;
68365;SDS011;55283;51.466;5.478;2023-03-02T07:09:32;3.73;;;2.07;;
68365;SDS011;55283;51.466;5.478;2023-03-02T07:12:00;29.20;;;2.20;;
68365;SDS011;55283;51.466;5.478;2023-03-02T07:14:25;3.60;;;2.00;;
68365;SDS011;55283;51.466;5.478;2023-03-02T07:16:57;6.78;;;3.40;;
68365;SDS011;55283;51.466;5.478;2023-03-02T07:19:24;7.35;;;3.05;;
68365;SDS011;55283;51.466;5.478;2023-03-02T07:21:49;7.17;;;3.03;;
68365;SDS011;55283;51.466;5.478;2023-03-02T07:24:14;4.47;;;3.00;;
68365;SDS011;55283;51.466;5.478;2023-03-02T07:26:40;12.60;;;7.95;;
68365;SDS011;55283;51.466;5.478;2023-03-02T07:29:05;22.60;;;14.27;;
68365;SDS011;55283;51.466;5.478;2023-03-02T07:31:34;22.07;;;15.37;;
68365;SDS011;55283;51.466;5.478;2023-03-02T07:33:59;27.83;;;15.40;;
68365;SDS011;55283;51.466;5.478;2023-03-02T07:36:24;28.17;;;15.17;;
68365;SDS011;55283;51.466;5.478;2023-03-02T07:38:52;21.58;;;13.25;;
68365;SDS011;55283;51.466;5.478;2023-03-02T07:41:19;22.10;;;13.77;;
68365;SDS011;55283;51.466;5.478;2023-03-02T07:43:44;23.70;;;14.02;;
68365;SDS011;55283;51.466;5.478;2023-03-02T07:46:10;22.63;;;13.60;;
68365;SDS011;55283;51.466;5.478;2023-03-02T07:48:37;21.53;;;13.07;;
68365;SDS011;55283;51.466;5.478;2023-03-02T07:51:04;18.77;;;12.65;;
68365;SDS011;55283;51.466;5.478;2023-03-02T07:53:30;20.17;;;11.82;;
68365;SDS011;55283;51.466;5.478;2023-03-02T07:55:56;18.37;;;11.57;;
68365;SDS011;55283;51.466;5.478;2023-03-02T07:58:21;23.77;;;12.03;;
68365;SDS011;55283;51.466;5.478;2023-03-02T08:00:48;17.33;;;11.23;;
68365;SDS011;55283;51.466;5.478;2023-03-02T08:03:14;20.52;;;11.23;;
68365;SDS011;55283;51.466;5.478;2023-03-02T08:05:39;22.67;;;10.80;;
68365;SDS011;55283;51.466;5.478;2023-03-02T08:08:04;20.40;;;10.30;;
68365;SDS011;55283;51.466;5.478;2023-03-02T08:10:32;17.17;;;10.10;;
68365;SDS011;55283;51.466;5.478;2023-03-02T08:12:58;16.90;;;9.77;;
68365;SDS011;55283;51.466;5.478;2023-03-02T08:15:24;20.37;;;10.00;;
68365;SDS011;55283;51.466;5.478;2023-03-02T08:17:49;17.70;;;10.75;;
68365;SDS011;55283;51.466;5.478;2023-03-02T08:20:14;15.00;;;9.70;;
68365;SDS011;55283;51.466;5.478;2023-03-02T08:22:40;18.00;;;10.97;;
68365;SDS011;55283;51.466;5.478;2023-03-02T08:25:05;15.73;;;9.63;;
68365;SDS011;55283;51.466;5.478;2023-03-02T08:27:31;15.35;;;10.15;;
68365;SDS011;55283;51.466;5.478;2023-03-02T08:29:57;17.10;;;9.30;;
68365;SDS011;55283;51.466;5.478;2023-03-02T08:32:22;15.40;;;9.10;;
68365;SDS011;55283;51.466;5.478;2023-03-02T08:34:47;13.47;;;8.17;;
68365;SDS011;55283;51.466;5.478;2023-03-02T08:37:16;18.87;;;8.50;;
68365;SDS011;55283;51.466;5.478;2023-03-02T08:39:42;13.52;;;8.32;;
68365;SDS011;55283;51.466;5.478;2023-03-02T08:42:07;13.63;;;7.73;;
68365;SDS011;55283;51.466;5.478;2023-03-02T08:44:33;13.27;;;7.97;;
68365;SDS011;55283;51.466;5.478;2023-03-02T08:46:58;14.27;;;8.02;;
68365;SDS011;55283;51.466;5.478;2023-03-02T08:49:26;16.20;;;7.60;;
68365;SDS011;55283;51.466;5.478;2023-03-02T08:51:52;14.55;;;7.60;;
68365;SDS011;55283;51.466;5.478;2023-03-02T08:54:20;13.37;;;7.03;;
68365;SDS011;55283;51.466;5.478;2023-03-02T08:56:48;9.48;;;6.80;;
68365;SDS011;55283;51.466;5.478;2023-03-02T08:59:14;9.98;;;6.35;;
68365;SDS011;55283;51.466;5.478;2023-03-02T09:01:40;16.37;;;6.27;;
68365;SDS011;55283;51.466;5.478;2023-03-02T09:04:06;10.82;;;6.40;;
68365;SDS011;55283;51.466;5.478;2023-03-02T09:06:35;8.00;;;5.60;;
68365;SDS011;55283;51.466;5.478;2023-03-02T09:09:04;9.03;;;5.70;;
68365;SDS011;55283;51.466;5.478;2023-03-02T09:11:30;10.48;;;5.70;;
68365;SDS011;55283;51.466;5.478;2023-03-02T09:13:56;11.05;;;5.18;;
68365;SDS011;55283;51.466;5.478;2023-03-02T09:16:22;10.57;;;5.80;;
68365;SDS011;55283;51.466;5.478;2023-03-02T09:18:50;7.22;;;5.43;;
68365;SDS011;55283;51.466;5.478;2023-03-02T09:21:16;9.90;;;5.57;;
68365;SDS011;55283;51.466;5.478;2023-03-02T09:23:42;6.67;;;4.83;;
68365;SDS011;55283;51.466;5.478;2023-03-02T09:26:07;7.53;;;5.37;;
68365;SDS011;55283;51.466;5.478;2023-03-02T09:28:33;7.45;;;4.60;;
68365;SDS011;55283;51.466;5.478;2023-03-02T09:31:01;7.83;;;4.97;;
68365;SDS011;55283;51.466;5.478;2023-03-02T09:33:30;8.68;;;4.82;;
68365;SDS011;55283;51.466;5.478;2023-03-02T09:35:55;6.75;;;4.60;;
68365;SDS011;55283;51.466;5.478;2023-03-02T09:38:21;8.53;;;4.70;;
68365;SDS011;55283;51.466;5.478;2023-03-02T09:41:11;6.97;;;4.53;;
68365;SDS011;55283;51.466;5.478;2023-03-02T09:43:42;9.33;;;4.70;;
68365;SDS011;55283;51.466;5.478;2023-03-02T09:46:22;6.10;;;4.93;;
68365;SDS011;55283;51.466;5.478;2023-03-02T09:54:24;7.57;;;4.90;;
68365;SDS011;55283;51.466;5.478;2023-03-02T09:56:55;7.30;;;4.55;;
68365;SDS011;55283;51.466;5.478;2023-03-02T09:59:26;7.53;;;4.07;;
68365;SDS011;55283;51.466;5.478;2023-03-02T10:01:56;5.80;;;4.32;;
68365;SDS011;55283;51.466;5.478;2023-03-02T10:07:09;7.03;;;4.43;;
68365;SDS011;55283;51.466;5.478;2023-03-02T10:09:38;5.63;;;4.23;;
68365;SDS011;55283;51.466;5.478;2023-03-02T10:12:50;6.65;;;4.32;;
68365;SDS011;55283;51.466;5.478;2023-03-02T10:15:25;6.97;;;4.18;;
68365;SDS011;55283;51.466;5.478;2023-03-02T10:18:12;5.23;;;4.30;;
68365;SDS011;55283;51.466;5.478;2023-03-02T10:23:37;7.90;;;4.05;;
68365;SDS011;55283;51.466;5.478;2023-03-02T10:26:10;5.47;;;3.80;;
68365;SDS011;55283;51.466;5.478;2023-03-02T10:28:45;4.95;;;4.05;;
68365;SDS011;55283;51.466;5.478;2023-03-02T10:31:23;4.65;;;3.83;;
68365;SDS011;55283;51.466;5.478;2023-03-02T10:33:54;6.03;;;4.10;;
68365;SDS011;55283;51.466;5.478;2023-03-02T10:36:33;5.83;;;4.10;;
68365;SDS011;55283;51.466;5.478;2023-03-02T10:39:02;4.60;;;3.83;;
68365;SDS011;55283;51.466;5.478;2023-03-02T10:41:42;5.40;;;3.63;;
68365;SDS011;55283;51.466;5.478;2023-03-02T10:44:32;5.50;;;3.80;;
68365;SDS011;55283;51.466;5.478;2023-03-02T10:47:02;4.75;;;3.67;;
68365;SDS011;55283;51.466;5.478;2023-03-02T10:49:29;5.28;;;3.80;;
68365;SDS011;55283;51.466;5.478;2023-03-02T10:52:02;5.63;;;3.80;;
68365;SDS011;55283;51.466;5.478;2023-03-02T10:54:32;5.35;;;3.47;;
68365;SDS011;55283;51.466;5.478;2023-03-02T10:57:01;5.00;;;3.40;;
68365;SDS011;55283;51.466;5.478;2023-03-02T10:59:44;8.13;;;3.65;;
68365;SDS011;55283;51.466;5.478;2023-03-02T11:04:47;4.68;;;3.35;;
68365;SDS011;55283;51.466;5.478;2023-03-02T11:07:32;5.07;;;3.38;;
68365;SDS011;55283;51.466;5.478;2023-03-02T11:10:17;4.23;;;3.20;;
68365;SDS011;55283;51.466;5.478;2023-03-02T11:12:45;4.95;;;3.30;;
68365;SDS011;55283;51.466;5.478;2023-03-02T11:20:30;4.43;;;3.40;;
68365;SDS011;55283;51.466;5.478;2023-03-02T11:26:01;4.80;;;3.40;;
68365;SDS011;55283;51.466;5.478;2023-03-02T11:39:35;4.57;;;3.30;;
68365;SDS011;55283;51.466;5.478;2023-03-02T11:42:18;4.53;;;3.30;;
68365;SDS011;55283;51.466;5.478;2023-03-02T11:44:45;6.33;;;3.20;;
68365;SDS011;55283;51.466;5.478;2023-03-02T11:47:14;5.82;;;3.25;;
68365;SDS011;55283;51.466;5.478;2023-03-02T11:49:47;4.25;;;3.40;;
68365;SDS011;55283;51.466;5.478;2023-03-02T11:52:19;5.57;;;3.25;;
68365;SDS011;55283;51.466;5.478;2023-03-02T11:54:53;7.17;;;3.53;;
68365;SDS011;55283;51.466;5.478;2023-03-02T11:57:26;4.95;;;3.53;;
68365;SDS011;55283;51.466;5.478;2023-03-02T12:00:04;6.28;;;3.50;;
68365;SDS011;55283;51.466;5.478;2023-03-02T12:02:39;7.00;;;3.60;;
68365;SDS011;55283;51.466;5.478;2023-03-02T12:05:22;7.03;;;3.67;;
68365;SDS011;55283;51.466;5.478;2023-03-02T12:07:57;5.73;;;3.90;;
68365;SDS011;55283;51.466;5.478;2023-03-02T12:10:29;8.07;;;4.05;;
68365;SDS011;55283;51.466;5.478;2023-03-02T12:15:39;4.60;;;3.43;;
68365;SDS011;55283;51.466;5.478;2023-03-02T12:23:40;5.07;;;3.40;;
68365;SDS011;55283;51.466;5.478;2023-03-02T12:28:54;6.55;;;3.60;;
68365;SDS011;55283;51.466;5.478;2023-03-02T12:31:21;4.55;;;3.53;;
68365;SDS011;55283;51.466;5.478;2023-03-02T12:33:50;5.30;;;3.37;;
68365;SDS011;55283;51.466;5.478;2023-03-02T12:39:05;5.95;;;3.60;;
68365;SDS011;55283;51.466;5.478;2023-03-02T12:47:28;3.97;;;3.20;;
68365;SDS011;55283;51.466;5.478;2023-03-02T12:50:03;6.43;;;3.60;;
68365;SDS011;55283;51.466;5.478;2023-03-02T12:52:32;4.22;;;3.22;;
68365;SDS011;55283;51.466;5.478;2023-03-02T12:55:14;4.53;;;3.10;;
68365;SDS011;55283;51.466;5.478;2023-03-02T12:57:51;4.70;;;3.38;;
68365;SDS011;55283;51.466;5.478;2023-03-02T13:00:21;4.37;;;3.40;;
68365;SDS011;55283;51.466;5.478;2023-03-02T13:02:52;4.68;;;3.35;;
68365;SDS011;55283;51.466;5.478;2023-03-02T13:05:23;3.63;;;3.22;;
68365;SDS011;55283;51.466;5.478;2023-03-02T13:10:36;3.75;;;3.10;;
68365;SDS011;55283;51.466;5.478;2023-03-02T13:15:52;4.13;;;3.20;;
68365;SDS011;55283;51.466;5.478;2023-03-02T13:18:22;3.85;;;3.00;;
68365;SDS011;55283;51.466;5.478;2023-03-02T13:20:54;5.85;;;3.30;;
68365;SDS011;55283;51.466;5.478;2023-03-02T13:23:19;4.40;;;3.20;;
68365;SDS011;55283;51.466;5.478;2023-03-02T13:25:54;4.07;;;3.00;;
68365;SDS011;55283;51.466;5.478;2023-03-02T13:31:19;3.65;;;3.10;;
68365;SDS011;55283;51.466;5.478;2023-03-02T13:33:45;5.67;;;3.27;;
68365;SDS011;55283;51.466;5.478;2023-03-02T13:36:19;5.05;;;3.33;;
68365;SDS011;55283;51.466;5.478;2023-03-02T13:38:47;5.05;;;3.17;;
68365;SDS011;55283;51.466;5.478;2023-03-02T13:41:21;3.40;;;3.10;;
68365;SDS011;55283;51.466;5.478;2023-03-02T13:43:50;3.88;;;3.00;;
68365;SDS011;55283;51.466;5.478;2023-03-02T13:48:59;4.03;;;3.00;;
68365;SDS011;55283;51.466;5.478;2023-03-02T13:51:28;4.00;;;3.10;;
68365;SDS011;55283;51.466;5.478;2023-03-02T13:54:18;3.72;;;3.10;;
68365;SDS011;55283;51.466;5.478;2023-03-02T13:56:50;4.47;;;3.00;;
68365;SDS011;55283;51.466;5.478;2023-03-02T13:59:22;3.13;;;2.70;;
68365;SDS011;55283;51.466;5.478;2023-03-02T14:01:51;3.63;;;2.88;;
68365;SDS011;55283;51.466;5.478;2023-03-02T14:04:20;3.58;;;2.90;;
68365;SDS011;55283;51.466;5.478;2023-03-02T14:06:50;3.40;;;2.90;;
68365;SDS011;55283;51.466;5.478;2023-03-02T14:09:17;4.40;;;3.30;;
68365;SDS011;55283;51.466;5.478;2023-03-02T14:11:43;3.47;;;3.17;;
68365;SDS011;55283;51.466;5.478;2023-03-02T14:14:15;3.30;;;2.80;;
68365;SDS011;55283;51.466;5.478;2023-03-02T14:16:43;6.20;;;3.33;;
68365;SDS011;55283;51.466;5.478;2023-03-02T14:19:12;3.90;;;3.20;;
68365;SDS011;55283;51.466;5.478;2023-03-02T14:21:40;3.20;;;2.73;;
68365;SDS011;55283;51.466;5.478;2023-03-02T14:24:10;4.63;;;3.28;;
68365;SDS011;55283;51.466;5.478;2023-03-02T14:26:42;3.85;;;3.08;;
68365;SDS011;55283;51.466;5.478;2023-03-02T14:29:32;4.60;;;2.90;;
68365;SDS011;55283;51.466;5.478;2023-03-02T14:31:59;3.58;;;3.00;;
68365;SDS011;55283;51.466;5.478;2023-03-02T14:34:32;3.47;;;2.70;;
68365;SDS011;55283;51.466;5.478;2023-03-02T14:37:01;4.40;;;3.10;;
68365;SDS011;55283;51.466;5.478;2023-03-02T14:42:05;3.78;;;3.03;;
68365;SDS011;55283;51.466;5.478;2023-03-02T14:44:35;3.78;;;2.90;;
68365;SDS011;55283;51.466;5.478;2023-03-02T14:47:00;5.53;;;3.03;;
68365;SDS011;55283;51.466;5.478;2023-03-02T14:49:28;3.83;;;2.70;;
68365;SDS011;55283;51.466;5.478;2023-03-02T14:54:40;3.33;;;2.80;;
68365;SDS011;55283;51.466;5.478;2023-03-02T14:57:12;4.43;;;2.70;;
68365;SDS011;55283;51.466;5.478;2023-03-02T14:59:42;3.30;;;2.70;;
68365;SDS011;55283;51.466;5.478;2023-03-02T15:02:08;4.03;;;2.60;;
68365;SDS011;55283;51.466;5.478;2023-03-02T15:04:34;2.90;;;2.60;;
68365;SDS011;55283;51.466;5.478;2023-03-02T15:07:02;4.03;;;2.90;;
68365;SDS011;55283;51.466;5.478;2023-03-02T15:09:28;3.28;;;2.75;;
68365;SDS011;55283;51.466;5.478;2023-03-02T15:11:55;3.63;;;3.00;;
68365;SDS011;55283;51.466;5.478;2023-03-02T15:14:21;3.90;;;2.90;;
68365;SDS011;55283;51.466;5.478;2023-03-02T15:16:46;3.90;;;2.70;;
68365;SDS011;55283;51.466;5.478;2023-03-02T15:19:14;3.53;;;2.63;;
68365;SDS011;55283;51.466;5.478;2023-03-02T15:21:39;4.10;;;2.60;;
68365;SDS011;55283;51.466;5.478;2023-03-02T15:24:09;2.97;;;2.33;;
68365;SDS011;55283;51.466;5.478;2023-03-02T15:26:34;3.55;;;2.60;;
68365;SDS011;55283;51.466;5.478;2023-03-02T15:29:00;3.00;;;2.70;;
68365;SDS011;55283;51.466;5.478;2023-03-02T15:31:25;4.07;;;2.50;;
68365;SDS011;55283;51.466;5.478;2023-03-02T15:33:53;3.17;;;2.70;;
68365;SDS011;55283;51.466;5.478;2023-03-02T15:36:21;2.85;;;2.33;;
68365;SDS011;55283;51.466;5.478;2023-03-02T15:38:50;2.92;;;2.53;;
68365;SDS011;55283;51.466;5.478;2023-03-02T15:41:16;2.93;;;2.40;;
68365;SDS011;55283;51.466;5.478;2023-03-02T15:43:42;3.10;;;2.80;;
68365;SDS011;55283;51.466;5.478;2023-03-02T15:46:12;4.50;;;2.50;;
68365;SDS011;55283;51.466;5.478;2023-03-02T15:48:37;3.00;;;2.50;;
68365;SDS011;55283;51.466;5.478;2023-03-02T15:51:05;3.03;;;2.57;;
68365;SDS011;55283;51.466;5.478;2023-03-02T15:53:32;3.10;;;2.40;;
68365;SDS011;55283;51.466;5.478;2023-03-02T15:56:07;2.50;;;2.30;;
68365;SDS011;55283;51.466;5.478;2023-03-02T15:58:34;2.80;;;2.37;;
68365;SDS011;55283;51.466;5.478;2023-03-02T16:01:05;3.80;;;2.60;;
68365;SDS011;55283;51.466;5.478;2023-03-02T16:03:32;3.78;;;2.35;;
68365;SDS011;55283;51.466;5.478;2023-03-02T16:05:57;2.97;;;2.60;;
68365;SDS011;55283;51.466;5.478;2023-03-02T16:08:23;4.37;;;2.50;;
68365;SDS011;55283;51.466;5.478;2023-03-02T16:10:58;3.13;;;2.50;;
68365;SDS011;55283;51.466;5.478;2023-03-02T16:13:33;2.40;;;2.20;;
68365;SDS011;55283;51.466;5.478;2023-03-02T16:15:59;3.60;;;2.50;;
68365;SDS011;55283;51.466;5.478;2023-03-02T16:18:26;3.22;;;2.30;;